Lilliwaup, Washington
Current Conditions -  °F | °C
As of 11:53 PM on Thursday 18 Dec 2014 (Local Time) from KSHN Reporting Station
Overcast Overcast  
Wind Chill: 45°   Ceiling: 7000
Heat Index: 47°   Visibility: 10mi
Dew Point: 44°   Wind: 5mph
Humidity: 90%   Direction: 220°SW
Pressure: 29.75"   Gusts: NA
Location:  47.46°N, 123.12°W
Report Text: KSHN 190753Z AUTO 22004KT 10SM OVC070 08/07 A2975 RMK AO2 RAE40 SLP075 P0001 T00830067 401000056
Loading
Personal Weather Stations






























Interactive Weather Map New forecast layout! Learn more

10-Day Weather Forecast

Advertisements
Track Severe Weather on mobile